Alice International Airport
KALI : now visible

Airfield :











YOU CAN JOIN US ON...

 
LOGIN :

Register | Disclaimer

   EN    FR    IT 

 









Legend :    VFR   Marginal VFR   IFR   Intensive IFR   Very Intensive IFR
Visi :
Ceiling :
>= 8 km
>= 3000ft
5 to 8 km
1000 to 3000 ft
1500m to 5 km
500 to 1000 ft
800 to 1500m
200 to 500 ft
< 800m
< 200 ft
Symbols :   Thunderstorms  Fog  Heavy snow  Heavy precipitations  Wind > 20 kt






- Airport Elevation : 178 ft


KALI - Alice International

CURRENT METAR :
  • 231753Z AUTO VRB04KT 10SM FEW031 32/23 A2995 RMK AO2 SLP139 T03220233 10328 20239 55009

EXPIRED METARs :
  • 231653Z AUTO 20008KT 10SM CLR 31/23 A2994 RMK AO2 SLP137 T03060233
  • 231553Z AUTO 18011KT 10SM FEW020 29/23 A2997 RMK AO2 SLP145 T02890233

TAF KALI
Valid from the 23 at 18:00 until the 24 at 18:00 UTC


231721Z 2318/2418 16012G21KT P6SM VCSH SCT050 BKN250
FM240200 14010KT P6SM FEW020
FM240900 15006KT 5SM BR FEW020
TEMPO 2409/2412 3SM BR BKN015
FM241200 14008KT 5SM BR BKN025
FM241400 16014G22KT P6SM SCT035 BKN250
KZHU FIR / North America



MET'MAP, your aeronautical weather chart ! - Copyright ORBIFLY December 2007 - Disclaimer

ORBIFLY MET'MAP TEAM :

Programming & Development : Alexandra Zaïnal
Concept & original design : Baudouin d'Aumeries
Assistance for programming : Marc-Olivier Méhu
Technical & hardware support : Manuel Goepfert

Contact : metmap@orbifly.com




SOURCES & CREDITS :

   NOAA       Earth
Advisory